This is the latest recevied weather packets stored in our database for station/object EA3IBE-10. If no packets are shown the sender has not sent any weather packets the latest 10 day(s).
| Time | Temp. | Humidity | Pressure | Rain* | Wind** | Luminosity | Snow |
|---|---|---|---|---|---|---|---|
| 1778059779 | 25° C | 39% | 1011.1 hPa | - | - | - | - |
| 1778057379 | 26.67° C | 36% | 1011 hPa | - | - | - | - |
| 1778054978 | 23.89° C | 41% | 1010.8 hPa | - | - | - | - |
| 1778052578 | 21.11° C | 52% | 1010.6 hPa | - | - | - | - |
| 1778050178 | 15° C | 85% | 1010.4 hPa | - | - | - | - |
| 1778047778 | 13.33° C | 100% | 1010.3 hPa | - | - | - | - |
| 1778045378 | 10.56° C | 100% | 1010.1 hPa | - | - | - | - |
| 1778042978 | 8.89° C | 100% | 1009.6 hPa | - | - | - | - |
| 1778040579 | 8.89° C | 100% | 1009.4 hPa | - | - | - | - |
| 1778038178 | 8.89° C | 100% | 1009.3 hPa | - | - | - | - |
| 1778035778 | 9.44° C | 100% | 1009.3 hPa | - | - | - | - |
| 1778033378 | 9.44° C | 100% | 1009.1 hPa | - | - | - | - |
| 1778030978 | 10° C | 100% | 1009 hPa | - | - | - | - |
| 1778028578 | 10° C | 100% | 1009.1 hPa | - | - | - | - |
| 1778026177 | 10.56° C | 100% | 1009.2 hPa | - | - | - | - |
| 1778023777 | 11.11° C | 100% | 1009.5 hPa | - | - | - | - |
| 1778021377 | 11.67° C | 100% | 1009.3 hPa | - | - | - | - |
| 1778018977 | 12.78° C | 100% | 1009.8 hPa | - | - | - | - |
| 1778016577 | 12.78° C | 100% | 1009.9 hPa | - | - | - | - |
| 1778014177 | 12.22° C | 100% | 1009.4 hPa | - | - | - | - |
| 1778011777 | 12.22° C | 100% | 1009 hPa | - | - | - | - |
| 1778009377 | 12.78° C | 100% | 1008.3 hPa | - | - | - | - |
| 1778006977 | 12.78° C | 100% | 1008.7 hPa | - | - | - | - |
| 1778004577 | 13.33° C | 100% | 1008.5 hPa | - | - | - | - |
| 1778002177 | 12.78° C | 100% | 1008.5 hPa | - | - | - | - |
* Rain since midnight (hover to see other rain measurements)
** Current wind speed in m/s (hover to see current wind gust speed)